Time;durP1;ratioP1;P1;durP2;ratioP2;P2;SDS_P1;SDS_P2;PMS_P1;PMS_P2;Temp;Humidity;BMP_temperature;BMP_pressure;BME280_temperature;BME280_humidity;BME280_pressure;Samples;Min_cycle;Max_cycle;Signal;HPM_P1;HPM_P2
2023/06/23 00:02:18;;;;;;;10.57;9.77;;;;;;;;;;5066430;28;20338;-52
2023/06/23 00:04:44;;;;;;;11.60;10.50;;;;;;;;;;5071731;28;20250;-51
2023/06/23 00:07:10;;;;;;;12.18;10.57;;;;;;;;;;5072594;28;20291;-51
2023/06/23 00:09:37;;;;;;;11.23;10.13;;;;;;;;;;5065472;28;20231;-51
2023/06/23 00:12:07;;;;;;;11.95;10.95;;;;;;;;;;5065976;28;20243;-52
2023/06/23 00:14:33;;;;;;;12.05;10.38;;;;;;;;;;5071757;28;21004;-53
2023/06/23 00:17:00;;;;;;;11.05;10.15;;;;;;;;;;5068305;28;20708;-53
2023/06/23 00:19:31;;;;;;;11.18;10.18;;;;;;;;;;5074349;28;20235;-52
2023/06/23 00:21:58;;;;;;;11.05;10.05;;;;;;;;;;5073010;28;20242;-53
2023/06/23 00:24:24;;;;;;;13.20;10.82;;;;;;;;;;5066559;28;20220;-52
2023/06/23 00:26:51;;;;;;;12.43;11.20;;;;;;;;;;5068957;28;20247;-52
2023/06/23 00:29:17;;;;;;;10.27;9.38;;;;;;;;;;5072560;28;20230;-52
2023/06/23 00:31:44;;;;;;;11.70;10.70;;;;;;;;;;5065082;28;20267;-52
2023/06/23 00:34:10;;;;;;;11.45;10.32;;;;;;;;;;5069116;28;20230;-52
2023/06/23 00:36:38;;;;;;;13.32;10.63;;;;;;;;;;5067772;28;20243;-53
2023/06/23 00:39:04;;;;;;;10.50;9.48;;;;;;;;;;5069128;28;20230;-52
2023/06/23 00:41:31;;;;;;;10.55;9.70;;;;;;;;;;5065807;28;20219;-52
2023/06/23 00:43:59;;;;;;;10.02;8.98;;;;;;;;;;5073652;28;20235;-57
2023/06/23 00:46:26;;;;;;;8.95;8.05;;;;;;;;;;5073227;28;20366;-53
2023/06/23 00:48:53;;;;;;;10.48;9.40;;;;;;;;;;5075391;28;20299;-52
2023/06/23 00:51:21;;;;;;;11.18;10.05;;;;;;;;;;5083197;28;20238;-53
2023/06/23 00:53:49;;;;;;;9.00;8.18;;;;;;;;;;5065673;28;20239;-52
2023/06/23 00:56:16;;;;;;;13.57;9.38;;;;;;;;;;5064656;28;20241;-52
2023/06/23 00:58:42;;;;;;;9.95;8.98;;;;;;;;;;5064268;28;20738;-53
2023/06/23 01:01:10;;;;;;;11.10;10.00;;;;;;;;;;5061350;28;20735;-54
2023/06/23 01:03:37;;;;;;;10.25;9.30;;;;;;;;;;5059743;28;20239;-55
2023/06/23 01:06:10;;;;;;;12.50;10.43;;;;;;;;;;5056746;28;20271;-55
2023/06/23 01:08:42;;;;;;;11.63;10.43;;;;;;;;;;5059479;28;20312;-53
2023/06/23 01:11:14;;;;;;;12.63;11.40;;;;;;;;;;5062558;28;20223;-53
2023/06/23 01:13:43;;;;;;;12.30;11.23;;;;;;;;;;5060342;28;20296;-52
2023/06/23 01:16:12;;;;;;;13.05;11.93;;;;;;;;;;5059726;28;20689;-52
2023/06/23 01:18:44;;;;;;;11.82;10.70;;;;;;;;;;5058421;28;20258;-53
2023/06/23 01:21:13;;;;;;;12.30;11.20;;;;;;;;;;5062294;28;20314;-53
2023/06/23 01:23:57;;;;;;;13.82;12.52;;;;;;;;;;5060633;28;20231;-52
2023/06/23 01:26:38;;;;;;;12.90;11.70;;;;;;;;;;5059993;28;20312;-52
2023/06/23 01:29:08;;;;;;;12.90;11.63;;;;;;;;;;5063663;28;20279;-52
2023/06/23 01:31:48;;;;;;;14.15;11.20;;;;;;;;;;5062412;28;20320;-53
2023/06/23 01:34:18;;;;;;;12.38;11.27;;;;;;;;;;5063742;28;20245;-53
2023/06/23 01:36:49;;;;;;;11.82;10.82;;;;;;;;;;5064401;28;20261;-53
2023/06/23 01:39:18;;;;;;;15.50;12.63;;;;;;;;;;5063942;28;20242;-51
2023/06/23 01:41:46;;;;;;;11.93;10.73;;;;;;;;;;5062048;28;20235;-53
2023/06/23 01:44:15;;;;;;;11.60;10.45;;;;;;;;;;5064719;28;20231;-51
2023/06/23 01:46:44;;;;;;;11.95;10.85;;;;;;;;;;5065021;28;20247;-52
2023/06/23 01:49:13;;;;;;;12.50;10.90;;;;;;;;;;5064679;28;20237;-51
2023/06/23 01:51:44;;;;;;;10.90;9.93;;;;;;;;;;5064432;28;20253;-52
2023/06/23 01:54:11;;;;;;;11.40;10.10;;;;;;;;;;5052104;28;20232;-51
2023/06/23 01:56:38;;;;;;;11.30;10.20;;;;;;;;;;5064061;28;20246;-52
2023/06/23 01:59:05;;;;;;;12.35;10.23;;;;;;;;;;5062415;28;20782;-51
2023/06/23 02:01:34;;;;;;;11.23;10.27;;;;;;;;;;5064306;28;20238;-54
2023/06/23 02:04:01;;;;;;;10.90;9.82;;;;;;;;;;5062086;28;20238;-53
2023/06/23 02:06:29;;;;;;;11.57;10.25;;;;;;;;;;5068151;28;20223;-52
2023/06/23 02:08:58;;;;;;;10.63;9.65;;;;;;;;;;5061749;28;20626;-51
2023/06/23 02:11:26;;;;;;;9.23;8.48;;;;;;;;;;5064755;28;20354;-51
2023/06/23 02:13:54;;;;;;;10.82;9.57;;;;;;;;;;5055728;28;20247;-51
2023/06/23 02:16:21;;;;;;;8.77;8.02;;;;;;;;;;5062974;28;20235;-51
2023/06/23 02:18:53;;;;;;;9.18;8.30;;;;;;;;;;5070966;28;20258;-50
2023/06/23 02:21:21;;;;;;;9.93;8.70;;;;;;;;;;5068260;28;20317;-51
2023/06/23 02:23:48;;;;;;;8.18;7.40;;;;;;;;;;5064445;28;20292;-52
2023/06/23 02:26:15;;;;;;;9.98;8.75;;;;;;;;;;5062391;28;20231;-52
2023/06/23 02:28:42;;;;;;;10.93;9.77;;;;;;;;;;5071322;28;21815;-52
2023/06/23 02:31:09;;;;;;;9.32;8.43;;;;;;;;;;5068437;28;20235;-52
2023/06/23 02:33:38;;;;;;;8.55;7.78;;;;;;;;;;5075110;28;20671;-56
2023/06/23 02:36:07;;;;;;;9.50;8.65;;;;;;;;;;5071695;28;20696;-52
2023/06/23 02:38:36;;;;;;;9.70;8.65;;;;;;;;;;5063056;28;20227;-51
2023/06/23 02:41:04;;;;;;;8.77;7.97;;;;;;;;;;5059170;28;20227;-53
2023/06/23 02:43:33;;;;;;;9.30;8.15;;;;;;;;;;5062792;28;20649;-53
2023/06/23 02:46:01;;;;;;;10.70;8.40;;;;;;;;;;5062541;28;20287;-52
2023/06/23 02:48:31;;;;;;;8.32;7.53;;;;;;;;;;5066171;28;20251;-54
2023/06/23 02:50:58;;;;;;;7.68;7.03;;;;;;;;;;5067692;28;20240;-52
2023/06/23 02:53:28;;;;;;;8.73;7.93;;;;;;;;;;5064770;28;20322;-53
2023/06/23 02:55:57;;;;;;;7.97;7.28;;;;;;;;;;5071453;28;20262;-53
2023/06/23 02:58:26;;;;;;;9.20;7.85;;;;;;;;;;5058064;28;20235;-51
2023/06/23 03:00:53;;;;;;;8.85;7.53;;;;;;;;;;5067370;28;20316;-52
2023/06/23 03:03:20;;;;;;;10.13;8.27;;;;;;;;;;5060640;28;20607;-52
2023/06/23 03:05:47;;;;;;;8.50;7.70;;;;;;;;;;5065272;28;20725;-52
2023/06/23 03:08:14;;;;;;;7.90;7.18;;;;;;;;;;5065684;28;20231;-55
2023/06/23 03:10:42;;;;;;;9.75;7.60;;;;;;;;;;5066441;28;20255;-53
2023/06/23 03:13:08;;;;;;;9.95;8.95;;;;;;;;;;5066652;28;20235;-52
2023/06/23 03:15:36;;;;;;;10.40;8.15;;;;;;;;;;5061838;28;20320;-53
2023/06/23 03:18:05;;;;;;;9.23;8.43;;;;;;;;;;5064273;28;20227;-52
2023/06/23 03:20:36;;;;;;;9.25;8.35;;;;;;;;;;5065426;28;20303;-51
2023/06/23 03:23:05;;;;;;;10.10;8.63;;;;;;;;;;5065026;28;20243;-51
2023/06/23 03:25:32;;;;;;;10.50;8.75;;;;;;;;;;5062552;28;20235;-52
2023/06/23 03:28:03;;;;;;;9.23;8.38;;;;;;;;;;5060967;28;20238;-53
2023/06/23 03:30:34;;;;;;;10.38;9.32;;;;;;;;;;5066076;28;20223;-52
2023/06/23 03:33:02;;;;;;;9.43;8.45;;;;;;;;;;5065870;28;20243;-53
2023/06/23 03:35:31;;;;;;;8.38;7.57;;;;;;;;;;5062975;28;20648;-51
2023/06/23 03:37:59;;;;;;;8.70;7.90;;;;;;;;;;5059601;28;20248;-52
2023/06/23 03:40:26;;;;;;;8.25;7.45;;;;;;;;;;5064167;28;20245;-52
2023/06/23 03:42:55;;;;;;;9.52;8.45;;;;;;;;;;5066144;28;20239;-52
2023/06/23 03:45:24;;;;;;;10.32;9.25;;;;;;;;;;5064479;28;20830;-52
2023/06/23 03:47:51;;;;;;;9.32;8.43;;;;;;;;;;5064197;28;20235;-52
2023/06/23 03:50:28;;;;;;;9.57;8.38;;;;;;;;;;5049231;28;20238;-53
2023/06/23 03:52:55;;;;;;;9.38;8.57;;;;;;;;;;5061461;28;20285;-53
2023/06/23 03:55:24;;;;;;;9.45;8.60;;;;;;;;;;5065033;28;20235;-53
2023/06/23 03:57:54;;;;;;;9.07;8.27;;;;;;;;;;5064121;28;20258;-52
2023/06/23 04:00:21;;;;;;;9.45;8.65;;;;;;;;;;5062494;28;20227;-52
2023/06/23 04:02:51;;;;;;;9.57;8.48;;;;;;;;;;5065524;28;20239;-51
2023/06/23 04:05:19;;;;;;;9.63;8.73;;;;;;;;;;5061836;28;20239;-54
2023/06/23 04:07:46;;;;;;;9.43;8.57;;;;;;;;;;5064308;28;20239;-52
2023/06/23 04:10:13;;;;;;;8.95;8.18;;;;;;;;;;5068329;28;20314;-55
2023/06/23 04:12:40;;;;;;;10.25;9.25;;;;;;;;;;5062687;28;20231;-53
2023/06/23 04:15:09;;;;;;;10.45;9.55;;;;;;;;;;5063169;28;20231;-52
2023/06/23 04:17:37;;;;;;;9.85;8.88;;;;;;;;;;5062492;28;20259;-52
2023/06/23 04:20:07;;;;;;;9.68;8.63;;;;;;;;;;5064482;28;20231;-51
2023/06/23 04:22:35;;;;;;;9.57;8.55;;;;;;;;;;5059610;28;20724;-51
2023/06/23 04:25:02;;;;;;;8.65;7.82;;;;;;;;;;5059040;28;20234;-53
2023/06/23 04:27:30;;;;;;;9.88;8.88;;;;;;;;;;5063458;28;20656;-53
2023/06/23 04:29:57;;;;;;;9.50;8.57;;;;;;;;;;5062851;28;20240;-51
2023/06/23 04:32:24;;;;;;;11.40;8.65;;;;;;;;;;5060331;28;20930;-52
2023/06/23 04:34:51;;;;;;;9.02;8.23;;;;;;;;;;5063449;28;20315;-51
2023/06/23 04:37:21;;;;;;;10.30;9.30;;;;;;;;;;5062799;28;20908;-52
2023/06/23 04:39:49;;;;;;;10.52;9.48;;;;;;;;;;5059467;28;20242;-52
2023/06/23 04:42:18;;;;;;;9.48;8.57;;;;;;;;;;5063279;28;20288;-54
2023/06/23 04:44:49;;;;;;;11.10;10.02;;;;;;;;;;5066014;28;20334;-53
2023/06/23 04:47:18;;;;;;;11.82;9.30;;;;;;;;;;5063013;28;20239;-52
2023/06/23 04:49:46;;;;;;;9.30;8.40;;;;;;;;;;5066330;28;20246;-52
2023/06/23 04:52:14;;;;;;;13.77;10.98;;;;;;;;;;5069329;28;20241;-57
2023/06/23 04:54:44;;;;;;;10.45;9.48;;;;;;;;;;5067561;28;20231;-52
2023/06/23 04:57:11;;;;;;;11.80;9.52;;;;;;;;;;5073521;28;20243;-51
2023/06/23 04:59:38;;;;;;;9.82;8.93;;;;;;;;;;5065176;28;20243;-52
2023/06/23 05:02:06;;;;;;;9.77;8.95;;;;;;;;;;5061530;28;20370;-52
2023/06/23 05:04:34;;;;;;;13.27;11.98;;;;;;;;;;5064366;28;20528;-52
2023/06/23 05:07:02;;;;;;;12.18;10.07;;;;;;;;;;5061447;28;20231;-52
2023/06/23 05:09:29;;;;;;;12.32;11.02;;;;;;;;;;5062417;28;20230;-52
2023/06/23 05:11:59;;;;;;;12.43;10.88;;;;;;;;;;5059843;28;20238;-54
2023/06/23 05:14:26;;;;;;;9.95;8.95;;;;;;;;;;5063632;28;20242;-53
2023/06/23 05:16:54;;;;;;;11.07;9.90;;;;;;;;;;5064500;28;20266;-52
2023/06/23 05:19:21;;;;;;;10.25;9.15;;;;;;;;;;5062404;28;20231;-52
2023/06/23 05:21:49;;;;;;;9.25;8.43;;;;;;;;;;5058887;28;20235;-52
2023/06/23 05:24:16;;;;;;;9.75;8.77;;;;;;;;;;5062553;28;20281;-57
2023/06/23 05:26:43;;;;;;;10.20;9.32;;;;;;;;;;5062450;28;20231;-52
2023/06/23 05:29:12;;;;;;;10.15;9.27;;;;;;;;;;5059731;28;20314;-51
2023/06/23 05:31:41;;;;;;;9.38;8.60;;;;;;;;;;5061746;28;20243;-53
2023/06/23 05:34:09;;;;;;;9.88;8.32;;;;;;;;;;5064530;28;20230;-54
2023/06/23 05:36:36;;;;;;;10.15;9.25;;;;;;;;;;5058326;28;20302;-52
2023/06/23 05:39:05;;;;;;;9.68;8.80;;;;;;;;;;5060554;28;20661;-52
2023/06/23 05:41:32;;;;;;;10.45;9.48;;;;;;;;;;5062686;28;20376;-53
2023/06/23 05:43:59;;;;;;;9.93;8.93;;;;;;;;;;5062688;28;20227;-54
2023/06/23 05:46:28;;;;;;;9.48;8.68;;;;;;;;;;5064493;28;20723;-52
2023/06/23 05:48:59;;;;;;;10.90;9.40;;;;;;;;;;5064367;28;20735;-52
2023/06/23 05:51:28;;;;;;;9.57;8.77;;;;;;;;;;5062972;28;20235;-53
2023/06/23 05:53:56;;;;;;;9.05;8.15;;;;;;;;;;5065259;28;20706;-53
2023/06/23 05:56:28;;;;;;;9.70;8.90;;;;;;;;;;5064174;28;20230;-53
2023/06/23 05:58:57;;;;;;;10.55;9.65;;;;;;;;;;5060363;28;20284;-53
2023/06/23 06:01:25;;;;;;;9.93;9.10;;;;;;;;;;5056617;28;20231;-52
2023/06/23 06:03:58;;;;;;;10.82;9.60;;;;;;;;;;5063326;28;20304;-52
2023/06/23 06:06:25;;;;;;;11.05;10.05;;;;;;;;;;5061265;28;20295;-53
2023/06/23 06:08:53;;;;;;;10.65;9.70;;;;;;;;;;5058437;28;20230;-52
2023/06/23 06:11:20;;;;;;;10.05;9.05;;;;;;;;;;5063991;28;20314;-55
2023/06/23 06:13:48;;;;;;;12.13;9.98;;;;;;;;;;5062247;28;20227;-53
2023/06/23 06:16:15;;;;;;;11.00;10.00;;;;;;;;;;5063599;28;20357;-53
2023/06/23 06:18:42;;;;;;;10.68;9.68;;;;;;;;;;5055129;28;21126;-53
2023/06/23 06:21:10;;;;;;;10.60;9.63;;;;;;;;;;5062381;28;20231;-54
2023/06/23 06:23:37;;;;;;;10.45;9.55;;;;;;;;;;5060246;28;20263;-53
2023/06/23 06:26:05;;;;;;;11.23;10.15;;;;;;;;;;5063525;28;20280;-52
2023/06/23 06:28:32;;;;;;;10.43;9.50;;;;;;;;;;5062450;28;20673;-53
2023/06/23 06:30:59;;;;;;;10.88;9.98;;;;;;;;;;5060568;28;20444;-52
2023/06/23 06:33:27;;;;;;;9.88;8.88;;;;;;;;;;5059730;28;20234;-53
2023/06/23 06:35:55;;;;;;;12.80;11.35;;;;;;;;;;5063544;28;20243;-53
2023/06/23 06:38:24;;;;;;;10.43;9.30;;;;;;;;;;5062694;28;20224;-52
2023/06/23 06:40:53;;;;;;;11.27;10.25;;;;;;;;;;5063389;28;20255;-52
2023/06/23 06:43:20;;;;;;;12.25;11.05;;;;;;;;;;5062826;28;20227;-52
2023/06/23 06:45:47;;;;;;;15.20;10.95;;;;;;;;;;5057900;28;20224;-52
2023/06/23 06:48:14;;;;;;;12.60;10.88;;;;;;;;;;5062530;28;20235;-54
2023/06/23 06:50:41;;;;;;;9.73;8.82;;;;;;;;;;5060012;28;20317;-52
2023/06/23 06:53:08;;;;;;;10.55;9.50;;;;;;;;;;5066058;28;20246;-52
2023/06/23 06:55:38;;;;;;;11.93;10.93;;;;;;;;;;5066468;28;20230;-53
2023/06/23 06:58:04;;;;;;;11.23;10.10;;;;;;;;;;5066055;28;20230;-51
2023/06/23 07:00:31;;;;;;;11.95;10.75;;;;;;;;;;5066628;28;20226;-52
2023/06/23 07:02:58;;;;;;;13.02;11.80;;;;;;;;;;5067253;28;20231;-53
2023/06/23 07:05:24;;;;;;;13.48;11.43;;;;;;;;;;5069055;28;20232;-53
2023/06/23 07:07:51;;;;;;;12.63;11.45;;;;;;;;;;5073140;28;20222;-51
2023/06/23 07:10:18;;;;;;;12.57;11.48;;;;;;;;;;5065520;28;20234;-52
2023/06/23 07:12:46;;;;;;;12.07;10.52;;;;;;;;;;5074340;28;20452;-53
2023/06/23 07:15:12;;;;;;;12.68;11.48;;;;;;;;;;5069666;28;20821;-54
2023/06/23 07:17:39;;;;;;;11.32;10.32;;;;;;;;;;5073720;28;20318;-56
2023/06/23 07:20:06;;;;;;;14.30;12.75;;;;;;;;;;5065775;28;20244;-52
2023/06/23 07:22:33;;;;;;;11.60;9.98;;;;;;;;;;5074975;28;20319;-54
2023/06/23 07:25:01;;;;;;;11.15;10.15;;;;;;;;;;5070016;28;20589;-58
2023/06/23 07:27:27;;;;;;;10.50;9.45;;;;;;;;;;5077297;28;20643;-53
2023/06/23 07:29:55;;;;;;;11.00;9.95;;;;;;;;;;5069852;28;20761;-53
2023/06/23 07:32:22;;;;;;;12.10;11.10;;;;;;;;;;5077310;28;20231;-53
2023/06/23 07:34:49;;;;;;;10.70;9.80;;;;;;;;;;5076540;28;20267;-53
2023/06/23 07:37:15;;;;;;;12.55;11.43;;;;;;;;;;5073087;28;20231;-53
2023/06/23 07:39:42;;;;;;;12.50;11.27;;;;;;;;;;5074345;28;20288;-54
2023/06/23 07:42:09;;;;;;;12.00;10.77;;;;;;;;;;5064906;28;20243;-53
2023/06/23 07:44:36;;;;;;;10.73;9.70;;;;;;;;;;5064874;28;20231;-53
2023/06/23 07:47:05;;;;;;;11.32;10.18;;;;;;;;;;5066961;28;20318;-52
2023/06/23 07:49:31;;;;;;;12.25;11.20;;;;;;;;;;5063588;28;20234;-52
2023/06/23 07:52:00;;;;;;;12.70;11.40;;;;;;;;;;5061146;28;20254;-54
2023/06/23 07:54:26;;;;;;;12.93;11.73;;;;;;;;;;5060850;28;20643;-53
2023/06/23 07:56:53;;;;;;;12.30;9.90;;;;;;;;;;5062271;28;20235;-53
2023/06/23 07:59:20;;;;;;;12.10;11.00;;;;;;;;;;5062841;28;20280;-53
2023/06/23 08:01:46;;;;;;;11.18;9.90;;;;;;;;;;5061655;28;20239;-52
2023/06/23 08:04:14;;;;;;;10.93;9.75;;;;;;;;;;5063840;28;20231;-52
2023/06/23 08:06:41;;;;;;;13.90;11.45;;;;;;;;;;5062892;28;20599;-52
2023/06/23 08:09:07;;;;;;;10.90;9.90;;;;;;;;;;5063118;28;20670;-53
2023/06/23 08:11:34;;;;;;;8.85;8.15;;;;;;;;;;5060324;28;20255;-54
2023/06/23 08:14:01;;;;;;;10.70;9.68;;;;;;;;;;5057869;28;20234;-53
2023/06/23 08:16:27;;;;;;;13.43;10.98;;;;;;;;;;5062029;28;20223;-53
2023/06/23 08:18:54;;;;;;;11.82;10.73;;;;;;;;;;5060553;28;20233;-52
2023/06/23 08:21:22;;;;;;;13.85;11.90;;;;;;;;;;5058637;28;20268;-51
2023/06/23 08:23:49;;;;;;;11.80;10.70;;;;;;;;;;5057386;28;20584;-52
2023/06/23 08:26:16;;;;;;;12.85;11.55;;;;;;;;;;5061519;28;20758;-53
2023/06/23 08:28:43;;;;;;;10.45;9.52;;;;;;;;;;5065514;28;20649;-52
2023/06/23 08:31:09;;;;;;;11.93;10.85;;;;;;;;;;5060543;28;20261;-52
2023/06/23 08:33:36;;;;;;;11.10;10.00;;;;;;;;;;5061745;28;20247;-53
2023/06/23 08:36:03;;;;;;;12.23;11.02;;;;;;;;;;5063849;28;20231;-53
2023/06/23 08:38:31;;;;;;;12.27;11.10;;;;;;;;;;5059377;28;20224;-53
2023/06/23 08:40:58;;;;;;;11.55;10.23;;;;;;;;;;5053178;28;20231;-52
2023/06/23 08:43:26;;;;;;;10.88;9.95;;;;;;;;;;5060433;28;20238;-53
2023/06/23 08:45:55;;;;;;;11.52;10.52;;;;;;;;;;5058480;28;20237;-53
2023/06/23 08:48:24;;;;;;;11.48;10.57;;;;;;;;;;5064473;28;20683;-53
2023/06/23 08:50:51;;;;;;;11.07;9.73;;;;;;;;;;5070376;28;20358;-52
2023/06/23 08:53:18;;;;;;;11.10;10.20;;;;;;;;;;5068860;28;20326;-53
2023/06/23 08:55:46;;;;;;;10.50;9.63;;;;;;;;;;5062659;28;20314;-53
2023/06/23 08:58:12;;;;;;;11.63;10.30;;;;;;;;;;5065374;28;20292;-53
2023/06/23 09:00:39;;;;;;;11.63;10.57;;;;;;;;;;5063910;28;20325;-52
2023/06/23 09:03:06;;;;;;;12.15;11.02;;;;;;;;;;5062188;28;20271;-52
2023/06/23 09:05:32;;;;;;;12.15;11.13;;;;;;;;;;5061782;28;20597;-57
2023/06/23 09:07:59;;;;;;;10.95;9.98;;;;;;;;;;5063764;28;20237;-53
2023/06/23 09:10:25;;;;;;;12.02;10.93;;;;;;;;;;5060816;28;20550;-53
2023/06/23 09:13:15;;;;;;;11.57;10.48;;;;;;;;;;5061897;28;20261;-56
2023/06/23 09:15:44;;;;;;;12.55;11.35;;;;;;;;;;5057138;28;20360;-53
2023/06/23 09:18:12;;;;;;;13.40;12.30;;;;;;;;;;5065475;28;20425;-52
2023/06/23 09:20:38;;;;;;;15.48;14.18;;;;;;;;;;5058229;28;20259;-53
2023/06/23 09:23:04;;;;;;;13.85;12.77;;;;;;;;;;5066629;28;20230;-53
2023/06/23 09:25:37;;;;;;;15.15;13.75;;;;;;;;;;5059330;28;20680;-52
2023/06/23 09:28:05;;;;;;;15.77;14.25;;;;;;;;;;5075934;28;20250;-53
2023/06/23 09:30:34;;;;;;;15.43;13.98;;;;;;;;;;5061208;28;20234;-53
2023/06/23 09:33:00;;;;;;;15.60;14.20;;;;;;;;;;5064527;28;20677;-53
2023/06/23 09:35:27;;;;;;;16.10;14.75;;;;;;;;;;5060335;28;20346;-52
2023/06/23 09:37:54;;;;;;;15.77;14.45;;;;;;;;;;5065584;28;20231;-51
2023/06/23 09:40:25;;;;;;;16.48;15.00;;;;;;;;;;5059857;28;20607;-52
2023/06/23 09:42:56;;;;;;;15.60;14.23;;;;;;;;;;5061807;28;20243;-52
2023/06/23 09:45:25;;;;;;;18.05;16.33;;;;;;;;;;5061915;28;20226;-53
2023/06/23 09:47:51;;;;;;;18.27;16.33;;;;;;;;;;5064817;28;20231;-53
2023/06/23 09:50:18;;;;;;;17.38;15.77;;;;;;;;;;5059582;28;20235;-52
2023/06/23 09:52:44;;;;;;;19.48;17.60;;;;;;;;;;5071559;28;20231;-52
2023/06/23 09:55:11;;;;;;;19.45;17.75;;;;;;;;;;5054617;28;20311;-52
2023/06/23 09:57:37;;;;;;;18.25;16.67;;;;;;;;;;5062014;28;20295;-52
2023/06/23 10:00:08;;;;;;;20.58;18.83;;;;;;;;;;5056915;28;20421;-52
2023/06/23 10:02:39;;;;;;;20.05;18.23;;;;;;;;;;5061412;28;20239;-52
2023/06/23 10:05:06;;;;;;;18.70;17.10;;;;;;;;;;5068566;28;20725;-53
2023/06/23 10:07:33;;;;;;;20.02;18.02;;;;;;;;;;5059635;28;20223;-52
2023/06/23 10:10:01;;;;;;;18.02;16.60;;;;;;;;;;5061707;28;20239;-58
2023/06/23 10:12:28;;;;;;;19.83;18.13;;;;;;;;;;5066618;28;20227;-54
2023/06/23 10:14:55;;;;;;;21.67;19.80;;;;;;;;;;5059202;28;20239;-53
2023/06/23 10:17:22;;;;;;;19.08;17.33;;;;;;;;;;5060788;28;20235;-52
2023/06/23 10:19:51;;;;;;;20.15;18.23;;;;;;;;;;5056394;28;20231;-54
2023/06/23 10:22:19;;;;;;;17.88;16.38;;;;;;;;;;5064690;28;20659;-53
2023/06/23 10:24:46;;;;;;;19.67;17.92;;;;;;;;;;5063942;28;20231;-53
2023/06/23 10:27:16;;;;;;;18.38;16.77;;;;;;;;;;5066622;28;20254;-52
2023/06/23 10:29:44;;;;;;;20.90;18.80;;;;;;;;;;5073625;28;20313;-54
2023/06/23 10:32:12;;;;;;;19.90;18.13;;;;;;;;;;5068523;28;20235;-53
2023/06/23 10:34:41;;;;;;;19.45;17.75;;;;;;;;;;5062377;28;20933;-53
2023/06/23 10:37:11;;;;;;;21.55;19.50;;;;;;;;;;5065961;28;20701;-53
2023/06/23 10:39:39;;;;;;;19.55;17.75;;;;;;;;;;5062757;28;20241;-53
2023/06/23 10:42:06;;;;;;;17.67;16.13;;;;;;;;;;5064903;28;20263;-53
2023/06/23 10:44:33;;;;;;;19.52;17.73;;;;;;;;;;5071464;28;20233;-53
2023/06/23 10:46:59;;;;;;;18.42;16.58;;;;;;;;;;5068630;28;20247;-53
2023/06/23 10:49:26;;;;;;;19.33;17.60;;;;;;;;;;5060543;28;20235;-53
2023/06/23 10:51:53;;;;;;;18.52;16.90;;;;;;;;;;5064985;28;20254;-53
2023/06/23 10:54:27;;;;;;;19.05;17.42;;;;;;;;;;5064938;28;20289;-53
2023/06/23 10:56:54;;;;;;;16.90;15.20;;;;;;;;;;5066878;28;20814;-52
2023/06/23 10:59:22;;;;;;;18.92;17.20;;;;;;;;;;5053463;28;20256;-52
2023/06/23 11:02:16;;;;;;;19.13;17.13;;;;;;;;;;5062466;28;20300;-53
2023/06/23 11:04:51;;;;;;;18.83;17.15;;;;;;;;;;5055286;28;20569;-55
2023/06/23 11:07:17;;;;;;;20.08;18.23;;;;;;;;;;5067165;28;20253;-57
2023/06/23 11:09:49;;;;;;;21.40;19.48;;;;;;;;;;5070182;28;20255;-52
2023/06/23 11:12:31;;;;;;;19.55;17.85;;;;;;;;;;5072478;28;20848;-53
2023/06/23 11:15:02;;;;;;;24.85;22.63;;;;;;;;;;5058111;28;20239;-53
2023/06/23 11:17:29;;;;;;;25.83;23.52;;;;;;;;;;5061683;28;20227;-52
2023/06/23 11:19:55;;;;;;;26.55;24.10;;;;;;;;;;5069032;28;20223;-54
2023/06/23 11:22:22;;;;;;;27.58;24.95;;;;;;;;;;5067474;28;20235;-53
2023/06/23 11:25:03;;;;;;;27.40;25.00;;;;;;;;;;5066989;28;20227;-53
2023/06/23 11:27:30;;;;;;;26.27;23.70;;;;;;;;;;5067499;28;21122;-52
2023/06/23 11:30:15;;;;;;;27.98;25.35;;;;;;;;;;5059242;28;20319;-54
2023/06/23 11:32:42;;;;;;;26.90;24.50;;;;;;;;;;5064492;28;20234;-54
2023/06/23 11:35:09;;;;;;;27.13;24.20;;;;;;;;;;5060241;28;20282;-53
2023/06/23 11:37:37;;;;;;;25.98;23.58;;;;;;;;;;5063439;28;20246;-53
2023/06/23 11:40:08;;;;;;;27.30;24.92;;;;;;;;;;5060360;28;20472;-52
2023/06/23 11:42:34;;;;;;;27.48;24.67;;;;;;;;;;5065827;28;20326;-52
2023/06/23 11:45:01;;;;;;;22.08;20.17;;;;;;;;;;5062891;28;20313;-55
2023/06/23 11:47:28;;;;;;;21.77;19.77;;;;;;;;;;5072026;28;20326;-54
2023/06/23 11:49:54;;;;;;;21.92;19.98;;;;;;;;;;5063865;28;20234;-57
2023/06/23 11:52:21;;;;;;;22.10;19.88;;;;;;;;;;5074686;28;20657;-54
2023/06/23 11:54:48;;;;;;;17.30;15.65;;;;;;;;;;5071427;28;20233;-53
2023/06/23 11:57:18;;;;;;;17.83;16.00;;;;;;;;;;5069926;28;20704;-56
2023/06/23 11:59:45;;;;;;;14.95;13.65;;;;;;;;;;5067071;28;20226;-55
2023/06/23 12:02:11;;;;;;;14.68;13.27;;;;;;;;;;5069601;28;20293;-55
2023/06/23 12:04:39;;;;;;;15.43;13.90;;;;;;;;;;5057641;28;20270;-54
2023/06/23 12:07:05;;;;;;;12.73;11.60;;;;;;;;;;5058812;28;20333;-55
2023/06/23 12:09:32;;;;;;;12.93;11.70;;;;;;;;;;5060445;28;20710;-56
2023/06/23 12:11:59;;;;;;;11.85;10.82;;;;;;;;;;5056052;28;20302;-56
2023/06/23 12:14:31;;;;;;;11.52;10.30;;;;;;;;;;5061889;28;20328;-56
2023/06/23 12:17:04;;;;;;;11.15;10.10;;;;;;;;;;5064801;28;20231;-56
2023/06/23 12:19:32;;;;;;;11.20;10.18;;;;;;;;;;5061272;28;20307;-57
2023/06/23 12:21:58;;;;;;;10.80;9.80;;;;;;;;;;5064543;28;20270;-60
2023/06/23 12:24:25;;;;;;;11.38;10.05;;;;;;;;;;5064755;28;20663;-58
2023/06/23 12:26:52;;;;;;;11.18;10.10;;;;;;;;;;5065286;28;20290;-55
2023/06/23 12:29:19;;;;;;;12.35;9.80;;;;;;;;;;5063902;28;20228;-56
2023/06/23 12:31:54;;;;;;;10.35;9.45;;;;;;;;;;5067505;28;20235;-57
2023/06/23 12:34:20;;;;;;;15.32;10.45;;;;;;;;;;5056910;28;20701;-57
2023/06/23 12:36:47;;;;;;;10.75;9.65;;;;;;;;;;5065063;28;20261;-57
2023/06/23 12:39:15;;;;;;;10.38;8.35;;;;;;;;;;5063273;28;20231;-57
2023/06/23 12:41:42;;;;;;;11.15;9.05;;;;;;;;;;5055019;28;20281;-58
2023/06/23 12:44:11;;;;;;;9.82;7.38;;;;;;;;;;5059210;28;20314;-57
2023/06/23 12:46:38;;;;;;;9.43;8.52;;;;;;;;;;5060818;28;20618;-57
2023/06/23 12:49:08;;;;;;;10.80;8.48;;;;;;;;;;5070511;28;20658;-57
2023/06/23 12:51:36;;;;;;;8.63;7.20;;;;;;;;;;5061399;28;20324;-56
2023/06/23 12:54:03;;;;;;;9.88;7.25;;;;;;;;;;5065819;28;20338;-55
2023/06/23 12:56:30;;;;;;;8.70;6.95;;;;;;;;;;5060323;28;21023;-56
2023/06/23 12:58:57;;;;;;;9.23;7.07;;;;;;;;;;5061141;28;20430;-55
2023/06/23 13:01:24;;;;;;;12.50;7.28;;;;;;;;;;5064321;28;20235;-54
2023/06/23 13:03:50;;;;;;;8.20;7.40;;;;;;;;;;5067523;28;20247;-56
2023/06/23 13:06:19;;;;;;;8.77;7.35;;;;;;;;;;5059763;28;20318;-56
2023/06/23 13:08:46;;;;;;;8.20;7.07;;;;;;;;;;5064599;28;20289;-55
2023/06/23 13:11:12;;;;;;;13.60;7.82;;;;;;;;;;5064390;28;20322;-55
2023/06/23 13:13:39;;;;;;;8.18;7.40;;;;;;;;;;5066151;28;20239;-57
2023/06/23 13:16:05;;;;;;;8.38;7.57;;;;;;;;;;5060495;28;20611;-55
2023/06/23 13:18:32;;;;;;;7.90;7.07;;;;;;;;;;5062806;28;20254;-56
2023/06/23 13:20:59;;;;;;;7.60;6.82;;;;;;;;;;5058240;28;20234;-58
2023/06/23 13:23:27;;;;;;;9.00;7.65;;;;;;;;;;5058427;28;20235;-57
2023/06/23 13:25:53;;;;;;;9.98;8.10;;;;;;;;;;5055896;28;20476;-56
2023/06/23 13:28:20;;;;;;;9.40;7.80;;;;;;;;;;5063872;28;20315;-61
2023/06/23 13:30:46;;;;;;;8.95;8.05;;;;;;;;;;5052767;28;20236;-56
2023/06/23 13:33:14;;;;;;;9.07;7.78;;;;;;;;;;5062099;28;20319;-56
2023/06/23 13:35:40;;;;;;;9.80;7.82;;;;;;;;;;5060162;28;20266;-58
2023/06/23 13:38:07;;;;;;;9.85;7.63;;;;;;;;;;5063829;28;20231;-58
2023/06/23 13:40:34;;;;;;;8.38;7.47;;;;;;;;;;5053068;28;20234;-60
2023/06/23 13:43:01;;;;;;;9.05;7.68;;;;;;;;;;5064732;28;20235;-58
2023/06/23 13:45:27;;;;;;;7.15;6.50;;;;;;;;;;5056185;28;20338;-59
2023/06/23 13:47:54;;;;;;;8.60;7.43;;;;;;;;;;5060960;28;20242;-58
2023/06/23 13:50:21;;;;;;;6.88;6.25;;;;;;;;;;5055097;28;20250;-59
2023/06/23 13:52:47;;;;;;;8.57;6.10;;;;;;;;;;5063725;28;20314;-57
2023/06/23 13:55:14;;;;;;;7.97;7.18;;;;;;;;;;5058538;28;21240;-59
2023/06/23 13:57:42;;;;;;;8.70;6.60;;;;;;;;;;5061730;28;20312;-59
2023/06/23 14:00:10;;;;;;;6.82;6.03;;;;;;;;;;5055928;28;20238;-59
2023/06/23 14:02:37;;;;;;;7.05;6.45;;;;;;;;;;5063818;28;20648;-59
2023/06/23 14:05:03;;;;;;;8.15;5.45;;;;;;;;;;5065988;28;20707;-58
2023/06/23 14:07:30;;;;;;;6.22;5.63;;;;;;;;;;5063712;28;20255;-61
2023/06/23 14:09:57;;;;;;;6.35;5.75;;;;;;;;;;5061688;28;20723;-60
2023/06/23 14:12:23;;;;;;;6.22;5.63;;;;;;;;;;5067805;28;20231;-60
2023/06/23 14:14:51;;;;;;;7.40;5.13;;;;;;;;;;5073911;28;20231;-64
2023/06/23 14:17:18;;;;;;;5.65;5.15;;;;;;;;;;5076682;27;20250;-60
2023/06/23 14:19:45;;;;;;;7.03;5.95;;;;;;;;;;5068085;28;20712;-57
2023/06/23 14:22:11;;;;;;;6.57;5.22;;;;;;;;;;5059532;28;20743;-62
2023/06/23 14:24:38;;;;;;;12.02;8.38;;;;;;;;;;5068620;28;20227;-60
2023/06/23 14:27:04;;;;;;;10.45;7.13;;;;;;;;;;5067721;28;20990;-61
2023/06/23 14:29:31;;;;;;;6.43;5.82;;;;;;;;;;5062788;28;20237;-60
2023/06/23 14:31:58;;;;;;;7.05;6.35;;;;;;;;;;5064094;28;20340;-61
2023/06/23 14:34:26;;;;;;;7.05;6.28;;;;;;;;;;5067563;28;20756;-62